sensor_id;sensor_type;location;lat;lon;timestamp;temperature;humidity
69770;SHT30;57282;52.514;13.458;2022-08-14T00:01:45;24.43;59.76
69770;SHT30;57282;52.514;13.458;2022-08-14T00:04:16;24.40;59.96
69770;SHT30;57282;52.514;13.458;2022-08-14T00:06:47;24.40;60.04
69770;SHT30;57282;52.514;13.458;2022-08-14T00:09:13;24.36;60.13
69770;SHT30;57282;52.514;13.458;2022-08-14T00:11:40;24.29;60.28
69770;SHT30;57282;52.514;13.458;2022-08-14T00:14:07;24.27;60.41
69770;SHT30;57282;52.514;13.458;2022-08-14T00:16:35;24.25;60.56
69770;SHT30;57282;52.514;13.458;2022-08-14T00:19:02;24.20;60.67
69770;SHT30;57282;52.514;13.458;2022-08-14T00:21:29;24.20;60.57
69770;SHT30;57282;52.514;13.458;2022-08-14T00:23:56;24.18;60.73
69770;SHT30;57282;52.514;13.458;2022-08-14T00:26:23;24.15;60.82
69770;SHT30;57282;52.514;13.458;2022-08-14T00:28:51;24.10;60.97
69770;SHT30;57282;52.514;13.458;2022-08-14T00:31:19;24.09;61.11
69770;SHT30;57282;52.514;13.458;2022-08-14T00:33:47;24.09;61.13
69770;SHT30;57282;52.514;13.458;2022-08-14T00:36:21;24.06;61.19
69770;SHT30;57282;52.514;13.458;2022-08-14T00:38:49;24.02;61.36
69770;SHT30;57282;52.514;13.458;2022-08-14T00:41:16;24.01;61.47
69770;SHT30;57282;52.514;13.458;2022-08-14T00:43:44;24.01;61.47
69770;SHT30;57282;52.514;13.458;2022-08-14T00:46:16;23.98;61.57
69770;SHT30;57282;52.514;13.458;2022-08-14T00:48:49;23.94;61.73
69770;SHT30;57282;52.514;13.458;2022-08-14T00:51:16;23.91;61.74
69770;SHT30;57282;52.514;13.458;2022-08-14T00:53:43;23.91;61.83
69770;SHT30;57282;52.514;13.458;2022-08-14T00:56:13;23.88;61.96
69770;SHT30;57282;52.514;13.458;2022-08-14T00:58:41;23.85;61.86
69770;SHT30;57282;52.514;13.458;2022-08-14T01:01:09;23.88;62.08
69770;SHT30;57282;52.514;13.458;2022-08-14T01:03:41;23.82;62.13
69770;SHT30;57282;52.514;13.458;2022-08-14T01:06:11;23.81;62.24
69770;SHT30;57282;52.514;13.458;2022-08-14T01:08:41;23.78;62.29
69770;SHT30;57282;52.514;13.458;2022-08-14T01:11:11;23.77;62.25
69770;SHT30;57282;52.514;13.458;2022-08-14T01:13:43;23.77;62.33
69770;SHT30;57282;52.514;13.458;2022-08-14T01:16:14;23.77;62.41
69770;SHT30;57282;52.514;13.458;2022-08-14T01:18:45;23.74;62.50
69770;SHT30;57282;52.514;13.458;2022-08-14T01:21:32;23.72;62.44
69770;SHT30;57282;52.514;13.458;2022-08-14T01:24:01;23.71;62.50
69770;SHT30;57282;52.514;13.458;2022-08-14T01:26:29;23.68;62.68
69770;SHT30;57282;52.514;13.458;2022-08-14T01:28:57;23.68;62.69
69770;SHT30;57282;52.514;13.458;2022-08-14T01:31:26;23.68;62.73
69770;SHT30;57282;52.514;13.458;2022-08-14T01:33:58;23.65;62.71
69770;SHT30;57282;52.514;13.458;2022-08-14T01:36:28;23.67;62.92
69770;SHT30;57282;52.514;13.458;2022-08-14T01:39:00;23.68;63.06
69770;SHT30;57282;52.514;13.458;2022-08-14T01:41:28;23.65;62.80
69770;SHT30;57282;52.514;13.458;2022-08-14T01:43:57;23.68;62.75
69770;SHT30;57282;52.514;13.458;2022-08-14T01:46:27;23.70;62.85
69770;SHT30;57282;52.514;13.458;2022-08-14T01:49:00;23.68;62.93
69770;SHT30;57282;52.514;13.458;2022-08-14T01:51:29;23.67;62.96
69770;SHT30;57282;52.514;13.458;2022-08-14T01:54:02;23.70;63.04
69770;SHT30;57282;52.514;13.458;2022-08-14T01:56:34;23.61;63.16
69770;SHT30;57282;52.514;13.458;2022-08-14T01:59:04;23.64;63.13
69770;SHT30;57282;52.514;13.458;2022-08-14T02:01:32;23.62;63.21
69770;SHT30;57282;52.514;13.458;2022-08-14T02:04:00;23.62;63.30
69770;SHT30;57282;52.514;13.458;2022-08-14T02:06:28;23.62;63.47
69770;SHT30;57282;52.514;13.458;2022-08-14T02:08:55;23.62;63.50
69770;SHT30;57282;52.514;13.458;2022-08-14T02:11:24;23.58;63.53
69770;SHT30;57282;52.514;13.458;2022-08-14T02:13:54;23.61;63.69
69770;SHT30;57282;52.514;13.458;2022-08-14T02:16:26;23.58;63.83
69770;SHT30;57282;52.514;13.458;2022-08-14T02:19:00;23.57;63.87
69770;SHT30;57282;52.514;13.458;2022-08-14T02:21:30;23.57;63.93
69770;SHT30;57282;52.514;13.458;2022-08-14T02:23:59;23.58;63.85
69770;SHT30;57282;52.514;13.458;2022-08-14T02:26:30;23.57;63.90
69770;SHT30;57282;52.514;13.458;2022-08-14T02:29:01;23.55;63.87
69770;SHT30;57282;52.514;13.458;2022-08-14T02:31:32;23.55;63.94
69770;SHT30;57282;52.514;13.458;2022-08-14T02:34:03;23.53;63.96
69770;SHT30;57282;52.514;13.458;2022-08-14T02:36:31;23.53;64.09
69770;SHT30;57282;52.514;13.458;2022-08-14T02:38:58;23.53;64.14
69770;SHT30;57282;52.514;13.458;2022-08-14T02:41:25;23.53;64.25
69770;SHT30;57282;52.514;13.458;2022-08-14T02:43:53;23.53;64.34
69770;SHT30;57282;52.514;13.458;2022-08-14T02:46:20;23.47;64.33
69770;SHT30;57282;52.514;13.458;2022-08-14T02:48:46;23.49;64.39
69770;SHT30;57282;52.514;13.458;2022-08-14T02:51:13;23.46;64.35
69770;SHT30;57282;52.514;13.458;2022-08-14T02:53:42;23.49;64.43
69770;SHT30;57282;52.514;13.458;2022-08-14T02:56:12;23.46;64.60
69770;SHT30;57282;52.514;13.458;2022-08-14T02:58:45;23.41;64.57
69770;SHT30;57282;52.514;13.458;2022-08-14T03:01:15;23.39;64.63
69770;SHT30;57282;52.514;13.458;2022-08-14T03:03:44;23.40;64.63
69770;SHT30;57282;52.514;13.458;2022-08-14T03:06:13;23.40;64.82
69770;SHT30;57282;52.514;13.458;2022-08-14T03:08:43;23.43;64.79
69770;SHT30;57282;52.514;13.458;2022-08-14T03:11:11;23.40;64.81
69770;SHT30;57282;52.514;13.458;2022-08-14T03:13:40;23.37;64.74
69770;SHT30;57282;52.514;13.458;2022-08-14T03:16:10;23.40;64.79
69770;SHT30;57282;52.514;13.458;2022-08-14T03:18:42;23.39;64.92
69770;SHT30;57282;52.514;13.458;2022-08-14T03:21:11;23.40;64.84
69770;SHT30;57282;52.514;13.458;2022-08-14T03:23:41;23.43;64.90
69770;SHT30;57282;52.514;13.458;2022-08-14T03:26:12;23.41;64.73
69770;SHT30;57282;52.514;13.458;2022-08-14T03:28:43;23.39;64.82
69770;SHT30;57282;52.514;13.458;2022-08-14T03:31:11;23.39;64.85
69770;SHT30;57282;52.514;13.458;2022-08-14T03:33:41;23.37;64.83
69770;SHT30;57282;52.514;13.458;2022-08-14T03:36:10;23.37;64.92
69770;SHT30;57282;52.514;13.458;2022-08-14T03:38:40;23.37;64.90
69770;SHT30;57282;52.514;13.458;2022-08-14T03:41:08;23.36;64.85
69770;SHT30;57282;52.514;13.458;2022-08-14T03:43:38;23.33;64.94
69770;SHT30;57282;52.514;13.458;2022-08-14T03:46:05;23.36;65.05
69770;SHT30;57282;52.514;13.458;2022-08-14T03:48:32;23.34;65.02
69770;SHT30;57282;52.514;13.458;2022-08-14T03:51:00;23.34;65.12
69770;SHT30;57282;52.514;13.458;2022-08-14T03:53:27;23.36;65.12
69770;SHT30;57282;52.514;13.458;2022-08-14T03:55:54;23.33;65.20
69770;SHT30;57282;52.514;13.458;2022-08-14T03:58:23;23.31;65.11
69770;SHT30;57282;52.514;13.458;2022-08-14T04:00:49;23.33;65.14
69770;SHT30;57282;52.514;13.458;2022-08-14T04:03:16;23.27;65.35
69770;SHT30;57282;52.514;13.458;2022-08-14T04:05:44;23.26;65.49
69770;SHT30;57282;52.514;13.458;2022-08-14T04:08:12;23.27;65.44
69770;SHT30;57282;52.514;13.458;2022-08-14T04:10:38;23.27;65.58
69770;SHT30;57282;52.514;13.458;2022-08-14T04:13:05;23.23;65.70
69770;SHT30;57282;52.514;13.458;2022-08-14T04:15:32;23.23;65.69
69770;SHT30;57282;52.514;13.458;2022-08-14T04:18:02;23.20;65.66
69770;SHT30;57282;52.514;13.458;2022-08-14T04:20:31;23.20;65.76
69770;SHT30;57282;52.514;13.458;2022-08-14T04:22:57;23.21;65.80
69770;SHT30;57282;52.514;13.458;2022-08-14T04:25:25;23.21;65.85
69770;SHT30;57282;52.514;13.458;2022-08-14T04:27:52;23.17;65.82
69770;SHT30;57282;52.514;13.458;2022-08-14T04:30:19;23.20;65.97
69770;SHT30;57282;52.514;13.458;2022-08-14T04:32:46;23.19;65.89
69770;SHT30;57282;52.514;13.458;2022-08-14T04:35:12;23.20;65.91
69770;SHT30;57282;52.514;13.458;2022-08-14T04:37:39;23.17;66.02
69770;SHT30;57282;52.514;13.458;2022-08-14T04:40:39;23.19;66.02
69770;SHT30;57282;52.514;13.458;2022-08-14T04:43:23;23.17;65.96
69770;SHT30;57282;52.514;13.458;2022-08-14T04:46:06;23.19;65.75
69770;SHT30;57282;52.514;13.458;2022-08-14T04:48:34;23.21;66.01
69770;SHT30;57282;52.514;13.458;2022-08-14T04:51:02;23.20;65.98
69770;SHT30;57282;52.514;13.458;2022-08-14T04:53:30;23.21;65.97
69770;SHT30;57282;52.514;13.458;2022-08-14T04:56:00;23.21;65.99
69770;SHT30;57282;52.514;13.458;2022-08-14T04:58:29;23.19;66.14
69770;SHT30;57282;52.514;13.458;2022-08-14T05:01:04;23.21;66.16
69770;SHT30;57282;52.514;13.458;2022-08-14T05:03:34;23.19;66.20
69770;SHT30;57282;52.514;13.458;2022-08-14T05:06:03;23.14;66.29
69770;SHT30;57282;52.514;13.458;2022-08-14T05:08:32;23.13;66.23
69770;SHT30;57282;52.514;13.458;2022-08-14T05:11:02;23.13;66.29
69770;SHT30;57282;52.514;13.458;2022-08-14T05:13:31;23.13;66.22
69770;SHT30;57282;52.514;13.458;2022-08-14T05:16:05;23.14;66.30
69770;SHT30;57282;52.514;13.458;2022-08-14T05:18:34;23.17;66.25
69770;SHT30;57282;52.514;13.458;2022-08-14T05:21:05;23.14;66.26
69770;SHT30;57282;52.514;13.458;2022-08-14T05:23:34;23.19;66.20
69770;SHT30;57282;52.514;13.458;2022-08-14T05:26:05;23.16;66.39
69770;SHT30;57282;52.514;13.458;2022-08-14T05:28:39;23.14;66.60
69770;SHT30;57282;52.514;13.458;2022-08-14T05:31:14;23.19;66.47
69770;SHT30;57282;52.514;13.458;2022-08-14T05:33:43;23.16;66.15
69770;SHT30;57282;52.514;13.458;2022-08-14T05:36:11;23.19;66.02
69770;SHT30;57282;52.514;13.458;2022-08-14T05:38:40;23.21;66.27
69770;SHT30;57282;52.514;13.458;2022-08-14T05:41:11;23.21;65.93
69770;SHT30;57282;52.514;13.458;2022-08-14T05:43:40;23.26;65.95
69770;SHT30;57282;52.514;13.458;2022-08-14T05:46:09;23.28;65.92
69770;SHT30;57282;52.514;13.458;2022-08-14T05:48:38;23.31;66.00
69770;SHT30;57282;52.514;13.458;2022-08-14T05:51:05;23.33;65.84
69770;SHT30;57282;52.514;13.458;2022-08-14T05:53:32;23.33;65.74
69770;SHT30;57282;52.514;13.458;2022-08-14T05:55:59;23.36;65.88
69770;SHT30;57282;52.514;13.458;2022-08-14T05:58:27;23.39;65.71
69770;SHT30;57282;52.514;13.458;2022-08-14T06:00:54;23.41;65.54
69770;SHT30;57282;52.514;13.458;2022-08-14T06:03:21;23.43;65.54
69770;SHT30;57282;52.514;13.458;2022-08-14T06:05:50;23.46;65.57
69770;SHT30;57282;52.514;13.458;2022-08-14T06:08:20;23.46;65.52
69770;SHT30;57282;52.514;13.458;2022-08-14T06:10:49;23.50;65.51
69770;SHT30;57282;52.514;13.458;2022-08-14T06:13:17;23.51;65.53
69770;SHT30;57282;52.514;13.458;2022-08-14T06:15:47;23.50;65.63
69770;SHT30;57282;52.514;13.458;2022-08-14T06:18:15;23.54;65.61
69770;SHT30;57282;52.514;13.458;2022-08-14T06:20:42;23.60;65.57
69770;SHT30;57282;52.514;13.458;2022-08-14T06:23:09;23.61;65.52
69770;SHT30;57282;52.514;13.458;2022-08-14T06:25:36;23.61;65.45
69770;SHT30;57282;52.514;13.458;2022-08-14T06:28:03;23.64;65.21
69770;SHT30;57282;52.514;13.458;2022-08-14T06:30:32;23.68;65.10
69770;SHT30;57282;52.514;13.458;2022-08-14T06:33:00;23.68;65.06
69770;SHT30;57282;52.514;13.458;2022-08-14T06:35:27;23.71;64.74
69770;SHT30;57282;52.514;13.458;2022-08-14T06:37:55;23.77;64.80
69770;SHT30;57282;52.514;13.458;2022-08-14T06:40:25;23.79;64.52
69770;SHT30;57282;52.514;13.458;2022-08-14T06:42:53;23.82;64.50
69770;SHT30;57282;52.514;13.458;2022-08-14T06:45:21;23.84;64.46
69770;SHT30;57282;52.514;13.458;2022-08-14T06:47:48;23.89;63.93
69770;SHT30;57282;52.514;13.458;2022-08-14T06:50:17;23.91;63.98
69770;SHT30;57282;52.514;13.458;2022-08-14T06:52:46;23.91;64.05
69770;SHT30;57282;52.514;13.458;2022-08-14T06:55:14;23.95;64.13
69770;SHT30;57282;52.514;13.458;2022-08-14T06:57:44;24.01;64.07
69770;SHT30;57282;52.514;13.458;2022-08-14T07:00:14;24.05;63.76
69770;SHT30;57282;52.514;13.458;2022-08-14T07:02:42;24.12;63.71
69770;SHT30;57282;52.514;13.458;2022-08-14T07:05:28;24.15;63.22
69770;SHT30;57282;52.514;13.458;2022-08-14T07:08:23;24.15;63.12
69770;SHT30;57282;52.514;13.458;2022-08-14T07:10:53;24.18;63.10
69770;SHT30;57282;52.514;13.458;2022-08-14T07:13:21;24.23;62.93
69770;SHT30;57282;52.514;13.458;2022-08-14T07:15:51;24.25;62.71
69770;SHT30;57282;52.514;13.458;2022-08-14T07:18:21;24.27;62.75
69770;SHT30;57282;52.514;13.458;2022-08-14T07:20:50;24.30;62.44
69770;SHT30;57282;52.514;13.458;2022-08-14T07:23:18;24.35;62.21
69770;SHT30;57282;52.514;13.458;2022-08-14T07:25:49;24.37;62.09
69770;SHT30;57282;52.514;13.458;2022-08-14T07:28:19;24.37;62.02
69770;SHT30;57282;52.514;13.458;2022-08-14T07:30:48;24.43;61.88
69770;SHT30;57282;52.514;13.458;2022-08-14T07:33:16;24.46;61.70
69770;SHT30;57282;52.514;13.458;2022-08-14T07:35:44;24.49;61.24
69770;SHT30;57282;52.514;13.458;2022-08-14T07:38:16;24.56;60.86
69770;SHT30;57282;52.514;13.458;2022-08-14T07:40:45;24.59;60.79
69770;SHT30;57282;52.514;13.458;2022-08-14T07:43:12;24.64;60.48
69770;SHT30;57282;52.514;13.458;2022-08-14T07:45:39;24.68;60.00
69770;SHT30;57282;52.514;13.458;2022-08-14T07:48:06;24.83;59.29
69770;SHT30;57282;52.514;13.458;2022-08-14T07:50:33;24.87;59.19
69770;SHT30;57282;52.514;13.458;2022-08-14T07:53:00;24.88;59.01
69770;SHT30;57282;52.514;13.458;2022-08-14T07:55:28;24.91;58.71
69770;SHT30;57282;52.514;13.458;2022-08-14T07:57:55;24.98;58.29
69770;SHT30;57282;52.514;13.458;2022-08-14T08:00:23;24.98;58.21
69770;SHT30;57282;52.514;13.458;2022-08-14T08:02:54;25.04;58.10
69770;SHT30;57282;52.514;13.458;2022-08-14T08:05:23;25.14;56.95
69770;SHT30;57282;52.514;13.458;2022-08-14T08:07:52;25.21;56.82
69770;SHT30;57282;52.514;13.458;2022-08-14T08:10:22;25.25;56.93
69770;SHT30;57282;52.514;13.458;2022-08-14T08:13:03;25.36;56.72
69770;SHT30;57282;52.514;13.458;2022-08-14T08:15:35;25.42;56.70
69770;SHT30;57282;52.514;13.458;2022-08-14T08:18:04;25.43;56.72
69770;SHT30;57282;52.514;13.458;2022-08-14T08:20:35;25.46;56.80
69770;SHT30;57282;52.514;13.458;2022-08-14T08:23:04;25.54;56.73
69770;SHT30;57282;52.514;13.458;2022-08-14T08:25:34;25.67;56.21
69770;SHT30;57282;52.514;13.458;2022-08-14T08:28:05;25.72;55.98
69770;SHT30;57282;52.514;13.458;2022-08-14T08:30:35;25.76;55.64
69770;SHT30;57282;52.514;13.458;2022-08-14T08:33:07;25.79;55.45
69770;SHT30;57282;52.514;13.458;2022-08-14T08:35:36;25.83;55.38
69770;SHT30;57282;52.514;13.458;2022-08-14T08:38:05;25.94;55.40
69770;SHT30;57282;52.514;13.458;2022-08-14T08:40:35;25.98;55.20
69770;SHT30;57282;52.514;13.458;2022-08-14T08:43:06;25.98;54.91
69770;SHT30;57282;52.514;13.458;2022-08-14T08:45:42;26.04;54.74
69770;SHT30;57282;52.514;13.458;2022-08-14T08:48:09;26.16;54.28
69770;SHT30;57282;52.514;13.458;2022-08-14T08:50:38;26.14;54.14
69770;SHT30;57282;52.514;13.458;2022-08-14T08:53:06;26.24;53.86
69770;SHT30;57282;52.514;13.458;2022-08-14T08:55:39;26.31;53.75
69770;SHT30;57282;52.514;13.458;2022-08-14T08:58:10;26.32;53.38
69770;SHT30;57282;52.514;13.458;2022-08-14T09:00:40;26.35;53.68
69770;SHT30;57282;52.514;13.458;2022-08-14T09:03:09;26.41;53.50
69770;SHT30;57282;52.514;13.458;2022-08-14T09:05:46;26.42;53.01
69770;SHT30;57282;52.514;13.458;2022-08-14T09:08:17;26.48;52.91
69770;SHT30;57282;52.514;13.458;2022-08-14T09:10:46;26.48;53.05
69770;SHT30;57282;52.514;13.458;2022-08-14T09:13:14;26.59;51.40
69770;SHT30;57282;52.514;13.458;2022-08-14T09:15:43;26.65;51.27
69770;SHT30;57282;52.514;13.458;2022-08-14T09:18:11;26.78;50.45
69770;SHT30;57282;52.514;13.458;2022-08-14T09:20:42;26.83;49.82
69770;SHT30;57282;52.514;13.458;2022-08-14T09:23:12;26.85;49.83
69770;SHT30;57282;52.514;13.458;2022-08-14T09:25:41;26.95;50.16
69770;SHT30;57282;52.514;13.458;2022-08-14T09:28:10;27.02;50.07
69770;SHT30;57282;52.514;13.458;2022-08-14T09:30:42;27.02;49.61
69770;SHT30;57282;52.514;13.458;2022-08-14T09:33:44;27.09;49.24
69770;SHT30;57282;52.514;13.458;2022-08-14T09:39:48;27.20;48.73
69770;SHT30;57282;52.514;13.458;2022-08-14T09:42:32;27.30;47.80
69770;SHT30;57282;52.514;13.458;2022-08-14T09:45:12;27.36;47.68
69770;SHT30;57282;52.514;13.458;2022-08-14T09:47:43;27.44;47.59
69770;SHT30;57282;52.514;13.458;2022-08-14T09:50:18;27.50;48.09
69770;SHT30;57282;52.514;13.458;2022-08-14T09:52:52;27.50;47.53
69770;SHT30;57282;52.514;13.458;2022-08-14T09:55:22;27.51;46.78
69770;SHT30;57282;52.514;13.458;2022-08-14T09:57:50;27.61;46.58
69770;SHT30;57282;52.514;13.458;2022-08-14T10:00:21;27.66;46.60
69770;SHT30;57282;52.514;13.458;2022-08-14T10:03:08;27.78;46.23
69770;SHT30;57282;52.514;13.458;2022-08-14T10:05:35;27.80;46.31
69770;SHT30;57282;52.514;13.458;2022-08-14T10:08:03;27.85;46.25
69770;SHT30;57282;52.514;13.458;2022-08-14T10:10:41;27.96;46.29
69770;SHT30;57282;52.514;13.458;2022-08-14T10:13:24;28.01;46.48
69770;SHT30;57282;52.514;13.458;2022-08-14T10:15:57;28.03;45.87
69770;SHT30;57282;52.514;13.458;2022-08-14T10:18:26;28.12;45.23
69770;SHT30;57282;52.514;13.458;2022-08-14T10:20:55;28.15;45.34
69770;SHT30;57282;52.514;13.458;2022-08-14T10:23:26;28.17;44.69
69770;SHT30;57282;52.514;13.458;2022-08-14T10:26:02;28.24;43.84
69770;SHT30;57282;52.514;13.458;2022-08-14T10:28:38;28.33;43.54
69770;SHT30;57282;52.514;13.458;2022-08-14T10:31:16;28.42;42.92
69770;SHT30;57282;52.514;13.458;2022-08-14T10:33:58;28.42;42.59
69770;SHT30;57282;52.514;13.458;2022-08-14T10:36:27;28.42;42.25
69770;SHT30;57282;52.514;13.458;2022-08-14T10:38:58;28.39;43.00
69770;SHT30;57282;52.514;13.458;2022-08-14T10:41:37;28.43;43.49
69770;SHT30;57282;52.514;13.458;2022-08-14T10:44:10;28.43;43.73
69770;SHT30;57282;52.514;13.458;2022-08-14T10:46:43;28.50;43.49
69770;SHT30;57282;52.514;13.458;2022-08-14T10:49:18;28.57;43.32
69770;SHT30;57282;52.514;13.458;2022-08-14T10:52:00;28.57;43.26
69770;SHT30;57282;52.514;13.458;2022-08-14T10:54:33;28.71;42.79
69770;SHT30;57282;52.514;13.458;2022-08-14T10:57:18;28.71;42.93
69770;SHT30;57282;52.514;13.458;2022-08-14T10:59:49;28.71;42.75
69770;SHT30;57282;52.514;13.458;2022-08-14T11:02:21;28.72;43.33
69770;SHT30;57282;52.514;13.458;2022-08-14T11:05:04;28.75;42.52
69770;SHT30;57282;52.514;13.458;2022-08-14T11:07:33;28.81;42.57
69770;SHT30;57282;52.514;13.458;2022-08-14T11:10:06;28.87;42.66
69770;SHT30;57282;52.514;13.458;2022-08-14T11:12:43;28.88;42.45
69770;SHT30;57282;52.514;13.458;2022-08-14T11:15:13;28.88;42.42
69770;SHT30;57282;52.514;13.458;2022-08-14T11:17:44;28.87;42.59
69770;SHT30;57282;52.514;13.458;2022-08-14T11:20:15;28.86;42.64
69770;SHT30;57282;52.514;13.458;2022-08-14T11:22:44;28.90;42.44
69770;SHT30;57282;52.514;13.458;2022-08-14T11:25:13;28.97;42.19
69770;SHT30;57282;52.514;13.458;2022-08-14T11:27:42;28.97;40.98
69770;SHT30;57282;52.514;13.458;2022-08-14T11:30:12;28.90;41.48
69770;SHT30;57282;52.514;13.458;2022-08-14T11:32:43;28.97;41.15
69770;SHT30;57282;52.514;13.458;2022-08-14T11:35:16;29.02;40.59
69770;SHT30;57282;52.514;13.458;2022-08-14T11:37:52;29.02;40.53
69770;SHT30;57282;52.514;13.458;2022-08-14T11:40:22;29.02;40.02
69770;SHT30;57282;52.514;13.458;2022-08-14T11:42:51;29.02;40.40
69770;SHT30;57282;52.514;13.458;2022-08-14T11:45:21;29.04;40.76
69770;SHT30;57282;52.514;13.458;2022-08-14T11:47:49;29.07;40.50
69770;SHT30;57282;52.514;13.458;2022-08-14T11:50:19;29.07;41.06
69770;SHT30;57282;52.514;13.458;2022-08-14T11:52:48;29.14;40.99
69770;SHT30;57282;52.514;13.458;2022-08-14T11:55:18;29.05;41.08
69770;SHT30;57282;52.514;13.458;2022-08-14T11:57:46;29.04;41.33
69770;SHT30;57282;52.514;13.458;2022-08-14T12:00:23;29.12;40.36
69770;SHT30;57282;52.514;13.458;2022-08-14T12:02:52;29.11;40.87
69770;SHT30;57282;52.514;13.458;2022-08-14T12:05:33;29.19;40.81
69770;SHT30;57282;52.514;13.458;2022-08-14T12:08:03;29.28;40.72
69770;SHT30;57282;52.514;13.458;2022-08-14T12:10:32;29.38;40.49
69770;SHT30;57282;52.514;13.458;2022-08-14T12:13:09;29.42;40.95
69770;SHT30;57282;52.514;13.458;2022-08-14T12:15:39;29.48;40.73
69770;SHT30;57282;52.514;13.458;2022-08-14T12:18:06;29.53;40.82
69770;SHT30;57282;52.514;13.458;2022-08-14T12:20:37;29.53;40.74
69770;SHT30;57282;52.514;13.458;2022-08-14T12:23:19;29.59;40.28
69770;SHT30;57282;52.514;13.458;2022-08-14T12:25:49;29.59;40.02
69770;SHT30;57282;52.514;13.458;2022-08-14T12:28:16;29.69;39.93
69770;SHT30;57282;52.514;13.458;2022-08-14T12:30:50;29.72;39.50
69770;SHT30;57282;52.514;13.458;2022-08-14T12:33:21;29.73;39.26
69770;SHT30;57282;52.514;13.458;2022-08-14T12:35:53;29.77;39.58
69770;SHT30;57282;52.514;13.458;2022-08-14T12:38:31;29.67;39.70
69770;SHT30;57282;52.514;13.458;2022-08-14T12:41:00;29.66;40.13
69770;SHT30;57282;52.514;13.458;2022-08-14T12:43:27;29.63;39.99
69770;SHT30;57282;52.514;13.458;2022-08-14T12:45:54;29.67;39.73
69770;SHT30;57282;52.514;13.458;2022-08-14T12:48:23;29.78;39.41
69770;SHT30;57282;52.514;13.458;2022-08-14T12:50:54;29.73;39.29
69770;SHT30;57282;52.514;13.458;2022-08-14T12:53:33;29.80;39.16
69770;SHT30;57282;52.514;13.458;2022-08-14T12:56:01;29.76;39.04
69770;SHT30;57282;52.514;13.458;2022-08-14T12:58:28;29.76;38.90
69770;SHT30;57282;52.514;13.458;2022-08-14T13:00:56;29.76;38.82
69770;SHT30;57282;52.514;13.458;2022-08-14T13:03:23;29.81;38.60
69770;SHT30;57282;52.514;13.458;2022-08-14T13:05:51;29.80;38.50
69770;SHT30;57282;52.514;13.458;2022-08-14T13:08:21;29.78;38.31
69770;SHT30;57282;52.514;13.458;2022-08-14T13:10:49;29.86;38.68
69770;SHT30;57282;52.514;13.458;2022-08-14T13:13:17;29.98;38.43
69770;SHT30;57282;52.514;13.458;2022-08-14T13:15:47;30.04;38.32
69770;SHT30;57282;52.514;13.458;2022-08-14T13:18:17;30.10;37.58
69770;SHT30;57282;52.514;13.458;2022-08-14T13:20:48;30.17;37.82
69770;SHT30;57282;52.514;13.458;2022-08-14T13:23:17;30.20;37.33
69770;SHT30;57282;52.514;13.458;2022-08-14T13:25:49;30.24;36.80
69770;SHT30;57282;52.514;13.458;2022-08-14T13:28:18;30.24;36.65
69770;SHT30;57282;52.514;13.458;2022-08-14T13:30:45;30.21;36.05
69770;SHT30;57282;52.514;13.458;2022-08-14T13:33:15;30.21;36.36
69770;SHT30;57282;52.514;13.458;2022-08-14T13:35:47;30.27;36.31
69770;SHT30;57282;52.514;13.458;2022-08-14T13:38:20;30.21;36.18
69770;SHT30;57282;52.514;13.458;2022-08-14T13:40:48;30.28;36.19
69770;SHT30;57282;52.514;13.458;2022-08-14T13:43:20;30.32;36.34
69770;SHT30;57282;52.514;13.458;2022-08-14T13:45:56;30.27;35.34
69770;SHT30;57282;52.514;13.458;2022-08-14T13:48:23;30.25;35.76
69770;SHT30;57282;52.514;13.458;2022-08-14T13:50:54;30.27;35.76
69770;SHT30;57282;52.514;13.458;2022-08-14T13:53:25;30.41;35.17
69770;SHT30;57282;52.514;13.458;2022-08-14T13:55:54;30.42;35.50
69770;SHT30;57282;52.514;13.458;2022-08-14T13:58:24;30.44;35.62
69770;SHT30;57282;52.514;13.458;2022-08-14T14:00:52;30.41;35.80
69770;SHT30;57282;52.514;13.458;2022-08-14T14:03:20;30.46;35.32
69770;SHT30;57282;52.514;13.458;2022-08-14T14:05:52;30.41;34.74
69770;SHT30;57282;52.514;13.458;2022-08-14T14:08:21;30.45;34.86
69770;SHT30;57282;52.514;13.458;2022-08-14T14:10:51;30.45;34.42
69770;SHT30;57282;52.514;13.458;2022-08-14T14:13:19;30.52;32.56
69770;SHT30;57282;52.514;13.458;2022-08-14T14:15:47;30.51;32.43
69770;SHT30;57282;52.514;13.458;2022-08-14T14:18:14;30.56;32.25
69770;SHT30;57282;52.514;13.458;2022-08-14T14:20:42;30.62;32.98
69770;SHT30;57282;52.514;13.458;2022-08-14T14:23:11;30.62;31.35
69770;SHT30;57282;52.514;13.458;2022-08-14T14:25:41;30.69;30.91
69770;SHT30;57282;52.514;13.458;2022-08-14T14:28:14;30.71;31.03
69770;SHT30;57282;52.514;13.458;2022-08-14T14:30:44;30.71;30.64
69770;SHT30;57282;52.514;13.458;2022-08-14T14:33:13;30.71;30.63
69770;SHT30;57282;52.514;13.458;2022-08-14T14:35:44;30.66;30.84
69770;SHT30;57282;52.514;13.458;2022-08-14T14:38:15;30.69;30.65
69770;SHT30;57282;52.514;13.458;2022-08-14T14:40:44;30.66;30.67
69770;SHT30;57282;52.514;13.458;2022-08-14T14:43:14;30.69;30.97
69770;SHT30;57282;52.514;13.458;2022-08-14T14:45:43;30.72;30.49
69770;SHT30;57282;52.514;13.458;2022-08-14T14:48:11;30.73;30.49
69770;SHT30;57282;52.514;13.458;2022-08-14T14:50:38;30.79;30.51
69770;SHT30;57282;52.514;13.458;2022-08-14T14:53:05;30.76;31.00
69770;SHT30;57282;52.514;13.458;2022-08-14T14:55:33;30.78;30.75
69770;SHT30;57282;52.514;13.458;2022-08-14T14:58:00;30.79;30.96
69770;SHT30;57282;52.514;13.458;2022-08-14T15:00:28;30.82;30.47
69770;SHT30;57282;52.514;13.458;2022-08-14T15:02:54;30.80;30.52
69770;SHT30;57282;52.514;13.458;2022-08-14T15:05:22;30.79;30.67
69770;SHT30;57282;52.514;13.458;2022-08-14T15:07:50;30.78;30.43
69770;SHT30;57282;52.514;13.458;2022-08-14T15:10:19;30.72;30.31
69770;SHT30;57282;52.514;13.458;2022-08-14T15:12:47;30.71;31.20
69770;SHT30;57282;52.514;13.458;2022-08-14T15:15:14;30.73;30.48
69770;SHT30;57282;52.514;13.458;2022-08-14T15:17:42;30.72;30.68
69770;SHT30;57282;52.514;13.458;2022-08-14T15:20:12;30.71;31.25
69770;SHT30;57282;52.514;13.458;2022-08-14T15:22:40;30.68;31.30
69770;SHT30;57282;52.514;13.458;2022-08-14T15:25:09;30.66;31.14
69770;SHT30;57282;52.514;13.458;2022-08-14T15:27:37;30.68;31.17
69770;SHT30;57282;52.514;13.458;2022-08-14T15:30:06;30.71;31.36
69770;SHT30;57282;52.514;13.458;2022-08-14T15:32:35;30.68;30.97
69770;SHT30;57282;52.514;13.458;2022-08-14T15:35:06;30.68;31.12
69770;SHT30;57282;52.514;13.458;2022-08-14T15:37:33;30.65;31.36